sensor_id;sensor_type;location;lat;lon;timestamp;P1;durP1;ratioP1;P2;durP2;ratioP2
11935;SDS011;6027;48.576;9.180;2024-03-02T00:00:14;12.57;;;11.38;;
11935;SDS011;6027;48.576;9.180;2024-03-02T00:02:43;13.23;;;12.00;;
11935;SDS011;6027;48.576;9.180;2024-03-02T00:05:16;13.48;;;12.27;;
11935;SDS011;6027;48.576;9.180;2024-03-02T00:07:43;13.10;;;11.85;;
11935;SDS011;6027;48.576;9.180;2024-03-02T00:10:22;13.55;;;12.35;;
11935;SDS011;6027;48.576;9.180;2024-03-02T00:12:56;13.82;;;12.43;;
11935;SDS011;6027;48.576;9.180;2024-03-02T00:18:12;13.88;;;12.52;;
11935;SDS011;6027;48.576;9.180;2024-03-02T00:21:10;12.38;;;11.18;;
11935;SDS011;6027;48.576;9.180;2024-03-02T00:23:38;12.88;;;11.57;;
11935;SDS011;6027;48.576;9.180;2024-03-02T00:26:04;12.93;;;11.63;;
11935;SDS011;6027;48.576;9.180;2024-03-02T00:28:31;13.50;;;12.20;;
11935;SDS011;6027;48.576;9.180;2024-03-02T00:33:37;13.68;;;12.38;;
11935;SDS011;6027;48.576;9.180;2024-03-02T00:36:04;12.48;;;11.35;;
11935;SDS011;6027;48.576;9.180;2024-03-02T00:38:30;12.57;;;11.45;;
11935;SDS011;6027;48.576;9.180;2024-03-02T00:40:59;12.45;;;11.35;;
11935;SDS011;6027;48.576;9.180;2024-03-02T00:46:00;11.10;;;10.10;;
11935;SDS011;6027;48.576;9.180;2024-03-02T00:48:26;10.93;;;9.93;;
11935;SDS011;6027;48.576;9.180;2024-03-02T00:50:54;11.23;;;10.10;;
11935;SDS011;6027;48.576;9.180;2024-03-02T00:53:21;11.15;;;10.15;;
11935;SDS011;6027;48.576;9.180;2024-03-02T00:55:51;11.60;;;10.40;;
11935;SDS011;6027;48.576;9.180;2024-03-02T00:58:17;12.27;;;10.95;;
11935;SDS011;6027;48.576;9.180;2024-03-02T01:00:43;12.38;;;11.18;;
11935;SDS011;6027;48.576;9.180;2024-03-02T01:03:08;10.80;;;9.80;;
11935;SDS011;6027;48.576;9.180;2024-03-02T01:05:35;11.55;;;10.30;;
11935;SDS011;6027;48.576;9.180;2024-03-02T01:08:01;12.10;;;10.90;;
11935;SDS011;6027;48.576;9.180;2024-03-02T01:10:27;12.27;;;11.07;;
11935;SDS011;6027;48.576;9.180;2024-03-02T01:12:52;12.45;;;11.35;;
11935;SDS011;6027;48.576;9.180;2024-03-02T01:15:18;12.73;;;11.63;;
11935;SDS011;6027;48.576;9.180;2024-03-02T01:17:43;12.23;;;10.95;;
11935;SDS011;6027;48.576;9.180;2024-03-02T01:20:09;12.10;;;10.90;;
11935;SDS011;6027;48.576;9.180;2024-03-02T01:22:34;13.35;;;12.05;;
11935;SDS011;6027;48.576;9.180;2024-03-02T01:25:01;12.18;;;10.98;;
11935;SDS011;6027;48.576;9.180;2024-03-02T01:27:27;11.90;;;10.77;;
11935;SDS011;6027;48.576;9.180;2024-03-02T01:29:53;12.05;;;10.93;;
11935;SDS011;6027;48.576;9.180;2024-03-02T01:32:19;11.73;;;10.35;;
11935;SDS011;6027;48.576;9.180;2024-03-02T01:34:45;13.00;;;10.27;;
11935;SDS011;6027;48.576;9.180;2024-03-02T01:37:10;11.40;;;10.38;;
11935;SDS011;6027;48.576;9.180;2024-03-02T01:39:36;11.88;;;10.77;;
11935;SDS011;6027;48.576;9.180;2024-03-02T01:42:01;11.32;;;10.23;;
11935;SDS011;6027;48.576;9.180;2024-03-02T01:44:27;11.30;;;10.30;;
11935;SDS011;6027;48.576;9.180;2024-03-02T01:46:52;11.52;;;10.32;;
11935;SDS011;6027;48.576;9.180;2024-03-02T01:49:18;11.38;;;10.38;;
11935;SDS011;6027;48.576;9.180;2024-03-02T01:51:44;11.27;;;10.13;;
11935;SDS011;6027;48.576;9.180;2024-03-02T01:54:09;11.43;;;9.77;;
11935;SDS011;6027;48.576;9.180;2024-03-02T01:56:34;10.80;;;9.70;;
11935;SDS011;6027;48.576;9.180;2024-03-02T01:59:00;11.13;;;10.07;;
11935;SDS011;6027;48.576;9.180;2024-03-02T02:01:26;11.20;;;10.10;;
11935;SDS011;6027;48.576;9.180;2024-03-02T02:03:52;11.05;;;9.38;;
11935;SDS011;6027;48.576;9.180;2024-03-02T02:06:17;10.38;;;9.38;;
11935;SDS011;6027;48.576;9.180;2024-03-02T02:08:43;10.25;;;9.35;;
11935;SDS011;6027;48.576;9.180;2024-03-02T02:11:08;10.20;;;9.32;;
11935;SDS011;6027;48.576;9.180;2024-03-02T02:13:34;9.82;;;8.93;;
11935;SDS011;6027;48.576;9.180;2024-03-02T02:16:06;10.43;;;9.52;;
11935;SDS011;6027;48.576;9.180;2024-03-02T02:18:32;11.38;;;10.27;;
11935;SDS011;6027;48.576;9.180;2024-03-02T02:20:58;10.75;;;9.75;;
11935;SDS011;6027;48.576;9.180;2024-03-02T02:23:23;10.70;;;9.70;;
11935;SDS011;6027;48.576;9.180;2024-03-02T02:25:48;10.00;;;9.13;;
11935;SDS011;6027;48.576;9.180;2024-03-02T02:28:14;10.57;;;9.57;;
11935;SDS011;6027;48.576;9.180;2024-03-02T02:30:39;11.00;;;9.90;;
11935;SDS011;6027;48.576;9.180;2024-03-02T02:33:05;10.02;;;9.07;;
11935;SDS011;6027;48.576;9.180;2024-03-02T02:35:30;10.20;;;9.30;;
11935;SDS011;6027;48.576;9.180;2024-03-02T02:37:55;10.65;;;9.65;;
11935;SDS011;6027;48.576;9.180;2024-03-02T02:40:23;10.57;;;9.57;;
11935;SDS011;6027;48.576;9.180;2024-03-02T02:42:48;11.75;;;10.65;;
11935;SDS011;6027;48.576;9.180;2024-03-02T02:45:13;11.38;;;10.38;;
11935;SDS011;6027;48.576;9.180;2024-03-02T02:47:40;11.45;;;10.20;;
11935;SDS011;6027;48.576;9.180;2024-03-02T02:50:10;10.43;;;9.43;;
11935;SDS011;6027;48.576;9.180;2024-03-02T02:52:37;11.20;;;10.15;;
11935;SDS011;6027;48.576;9.180;2024-03-02T02:55:05;11.38;;;10.02;;
11935;SDS011;6027;48.576;9.180;2024-03-02T02:57:32;10.75;;;9.75;;
11935;SDS011;6027;48.576;9.180;2024-03-02T03:00:06;11.15;;;10.05;;
11935;SDS011;6027;48.576;9.180;2024-03-02T03:02:39;12.27;;;11.07;;
11935;SDS011;6027;48.576;9.180;2024-03-02T03:05:09;11.70;;;10.50;;
11935;SDS011;6027;48.576;9.180;2024-03-02T03:07:35;12.13;;;10.93;;
11935;SDS011;6027;48.576;9.180;2024-03-02T03:10:02;11.98;;;10.88;;
11935;SDS011;6027;48.576;9.180;2024-03-02T03:12:29;12.07;;;10.97;;
11935;SDS011;6027;48.576;9.180;2024-03-02T03:14:55;11.77;;;10.68;;
11935;SDS011;6027;48.576;9.180;2024-03-02T03:17:23;11.27;;;10.18;;
11935;SDS011;6027;48.576;9.180;2024-03-02T03:19:49;12.00;;;10.80;;
11935;SDS011;6027;48.576;9.180;2024-03-02T03:22:15;11.90;;;10.73;;
11935;SDS011;6027;48.576;9.180;2024-03-02T03:24:41;12.23;;;11.13;;
11935;SDS011;6027;48.576;9.180;2024-03-02T03:27:09;11.60;;;10.50;;
11935;SDS011;6027;48.576;9.180;2024-03-02T03:29:36;11.90;;;10.80;;
11935;SDS011;6027;48.576;9.180;2024-03-02T03:32:02;9.50;;;8.60;;
11935;SDS011;6027;48.576;9.180;2024-03-02T03:34:28;11.80;;;10.60;;
11935;SDS011;6027;48.576;9.180;2024-03-02T03:36:54;12.50;;;11.40;;
11935;SDS011;6027;48.576;9.180;2024-03-02T03:39:19;12.32;;;11.13;;
11935;SDS011;6027;48.576;9.180;2024-03-02T03:41:45;11.93;;;10.90;;
11935;SDS011;6027;48.576;9.180;2024-03-02T03:44:10;14.40;;;12.90;;
11935;SDS011;6027;48.576;9.180;2024-03-02T03:46:36;13.27;;;11.93;;
11935;SDS011;6027;48.576;9.180;2024-03-02T03:49:01;13.10;;;11.90;;
11935;SDS011;6027;48.576;9.180;2024-03-02T03:51:27;13.47;;;12.27;;
11935;SDS011;6027;48.576;9.180;2024-03-02T03:53:52;15.17;;;13.57;;
11935;SDS011;6027;48.576;9.180;2024-03-02T03:56:17;13.60;;;12.40;;
11935;SDS011;6027;48.576;9.180;2024-03-02T03:58:43;14.60;;;13.20;;
11935;SDS011;6027;48.576;9.180;2024-03-02T04:01:08;15.37;;;13.90;;
11935;SDS011;6027;48.576;9.180;2024-03-02T04:03:34;14.13;;;12.73;;
11935;SDS011;6027;48.576;9.180;2024-03-02T04:05:59;16.07;;;14.57;;
11935;SDS011;6027;48.576;9.180;2024-03-02T04:08:25;13.20;;;11.93;;
11935;SDS011;6027;48.576;9.180;2024-03-02T04:10:50;13.27;;;12.03;;
11935;SDS011;6027;48.576;9.180;2024-03-02T04:13:16;13.00;;;11.80;;
11935;SDS011;6027;48.576;9.180;2024-03-02T04:15:41;12.57;;;11.47;;
11935;SDS011;6027;48.576;9.180;2024-03-02T04:18:06;13.30;;;12.07;;
11935;SDS011;6027;48.576;9.180;2024-03-02T04:20:32;13.50;;;12.20;;
11935;SDS011;6027;48.576;9.180;2024-03-02T04:22:57;12.97;;;11.67;;
11935;SDS011;6027;48.576;9.180;2024-03-02T04:25:23;14.20;;;12.80;;
11935;SDS011;6027;48.576;9.180;2024-03-02T04:27:48;15.03;;;13.43;;
11935;SDS011;6027;48.576;9.180;2024-03-02T04:30:14;14.67;;;13.27;;
11935;SDS011;6027;48.576;9.180;2024-03-02T04:32:39;14.80;;;13.30;;
11935;SDS011;6027;48.576;9.180;2024-03-02T04:35:05;15.03;;;13.63;;
11935;SDS011;6027;48.576;9.180;2024-03-02T04:37:34;14.67;;;13.10;;
11935;SDS011;6027;48.576;9.180;2024-03-02T04:39:59;14.73;;;13.30;;
11935;SDS011;6027;48.576;9.180;2024-03-02T04:42:25;15.37;;;13.87;;
11935;SDS011;6027;48.576;9.180;2024-03-02T04:44:50;14.70;;;13.30;;
11935;SDS011;6027;48.576;9.180;2024-03-02T04:47:15;14.87;;;13.40;;
11935;SDS011;6027;48.576;9.180;2024-03-02T04:49:41;15.20;;;13.80;;
11935;SDS011;6027;48.576;9.180;2024-03-02T04:52:06;14.97;;;13.53;;
11935;SDS011;6027;48.576;9.180;2024-03-02T04:54:32;15.53;;;13.93;;
11935;SDS011;6027;48.576;9.180;2024-03-02T04:56:57;15.40;;;13.90;;
11935;SDS011;6027;48.576;9.180;2024-03-02T04:59:23;15.30;;;13.83;;
11935;SDS011;6027;48.576;9.180;2024-03-02T05:01:48;15.77;;;14.27;;
11935;SDS011;6027;48.576;9.180;2024-03-02T05:04:14;15.83;;;14.33;;
11935;SDS011;6027;48.576;9.180;2024-03-02T05:06:40;17.77;;;16.00;;
11935;SDS011;6027;48.576;9.180;2024-03-02T05:09:06;17.47;;;15.87;;
11935;SDS011;6027;48.576;9.180;2024-03-02T05:11:35;16.90;;;15.23;;
11935;SDS011;6027;48.576;9.180;2024-03-02T05:14:03;16.90;;;15.37;;
11935;SDS011;6027;48.576;9.180;2024-03-02T05:16:32;16.90;;;15.30;;
11935;SDS011;6027;48.576;9.180;2024-03-02T05:18:58;16.67;;;14.97;;
11935;SDS011;6027;48.576;9.180;2024-03-02T05:21:23;17.20;;;15.60;;
11935;SDS011;6027;48.576;9.180;2024-03-02T05:23:49;16.20;;;14.70;;
11935;SDS011;6027;48.576;9.180;2024-03-02T05:26:14;16.60;;;15.00;;
11935;SDS011;6027;48.576;9.180;2024-03-02T05:28:40;16.33;;;14.83;;
11935;SDS011;6027;48.576;9.180;2024-03-02T05:31:05;16.60;;;15.00;;
11935;SDS011;6027;48.576;9.180;2024-03-02T05:33:31;16.57;;;14.87;;
11935;SDS011;6027;48.576;9.180;2024-03-02T05:35:58;15.80;;;14.27;;
11935;SDS011;6027;48.576;9.180;2024-03-02T05:38:27;15.97;;;14.47;;
11935;SDS011;6027;48.576;9.180;2024-03-02T05:40:52;17.33;;;15.47;;
11935;SDS011;6027;48.576;9.180;2024-03-02T05:43:17;18.70;;;16.87;;
11935;SDS011;6027;48.576;9.180;2024-03-02T05:45:43;13.17;;;10.97;;
11935;SDS011;6027;48.576;9.180;2024-03-02T05:48:08;16.70;;;15.00;;
11935;SDS011;6027;48.576;9.180;2024-03-02T05:50:34;16.07;;;14.37;;
11935;SDS011;6027;48.576;9.180;2024-03-02T05:53:00;23.87;;;21.47;;
11935;SDS011;6027;48.576;9.180;2024-03-02T05:55:25;19.67;;;17.77;;
11935;SDS011;6027;48.576;9.180;2024-03-02T05:57:51;17.73;;;15.83;;
11935;SDS011;6027;48.576;9.180;2024-03-02T06:00:31;16.37;;;14.73;;
11935;SDS011;6027;48.576;9.180;2024-03-02T06:02:57;16.70;;;15.10;;
11935;SDS011;6027;48.576;9.180;2024-03-02T06:05:23;17.63;;;15.93;;
11935;SDS011;6027;48.576;9.180;2024-03-02T06:07:49;17.07;;;15.37;;
11935;SDS011;6027;48.576;9.180;2024-03-02T06:10:15;15.83;;;14.33;;
11935;SDS011;6027;48.576;9.180;2024-03-02T06:12:41;16.77;;;15.20;;
11935;SDS011;6027;48.576;9.180;2024-03-02T06:15:07;16.57;;;14.97;;
11935;SDS011;6027;48.576;9.180;2024-03-02T06:17:34;16.90;;;15.30;;
11935;SDS011;6027;48.576;9.180;2024-03-02T06:20:00;17.03;;;15.27;;
11935;SDS011;6027;48.576;9.180;2024-03-02T06:22:25;17.10;;;15.50;;
11935;SDS011;6027;48.576;9.180;2024-03-02T06:24:51;16.80;;;15.20;;
11935;SDS011;6027;48.576;9.180;2024-03-02T06:27:16;16.17;;;14.57;;
11935;SDS011;6027;48.576;9.180;2024-03-02T06:29:42;16.97;;;15.27;;
11935;SDS011;6027;48.576;9.180;2024-03-02T06:32:07;17.50;;;15.73;;
11935;SDS011;6027;48.576;9.180;2024-03-02T06:34:33;17.97;;;16.27;;
11935;SDS011;6027;48.576;9.180;2024-03-02T06:36:58;18.60;;;16.80;;
11935;SDS011;6027;48.576;9.180;2024-03-02T06:39:24;18.40;;;16.57;;
11935;SDS011;6027;48.576;9.180;2024-03-02T06:41:51;16.80;;;15.10;;
11935;SDS011;6027;48.576;9.180;2024-03-02T06:44:16;18.00;;;16.20;;
11935;SDS011;6027;48.576;9.180;2024-03-02T06:46:44;18.80;;;17.00;;
11935;SDS011;6027;48.576;9.180;2024-03-02T06:49:10;20.50;;;18.37;;
11935;SDS011;6027;48.576;9.180;2024-03-02T06:51:36;20.63;;;18.70;;
11935;SDS011;6027;48.576;9.180;2024-03-02T06:54:01;19.43;;;17.53;;
11935;SDS011;6027;48.576;9.180;2024-03-02T06:56:27;17.73;;;16.03;;
11935;SDS011;6027;48.576;9.180;2024-03-02T06:58:52;19.33;;;17.33;;
11935;SDS011;6027;48.576;9.180;2024-03-02T07:01:18;18.63;;;16.73;;
11935;SDS011;6027;48.576;9.180;2024-03-02T07:03:45;20.27;;;18.17;;
11935;SDS011;6027;48.576;9.180;2024-03-02T07:06:10;18.70;;;16.93;;
11935;SDS011;6027;48.576;9.180;2024-03-02T07:08:39;19.63;;;17.73;;
11935;SDS011;6027;48.576;9.180;2024-03-02T07:11:04;20.50;;;18.27;;
11935;SDS011;6027;48.576;9.180;2024-03-02T07:13:30;18.53;;;16.77;;
11935;SDS011;6027;48.576;9.180;2024-03-02T07:15:55;17.97;;;16.13;;
11935;SDS011;6027;48.576;9.180;2024-03-02T07:18:29;18.00;;;16.13;;
11935;SDS011;6027;48.576;9.180;2024-03-02T07:20:59;18.40;;;16.60;;
11935;SDS011;6027;48.576;9.180;2024-03-02T07:23:26;20.43;;;18.43;;
11935;SDS011;6027;48.576;9.180;2024-03-02T07:25:52;17.97;;;16.17;;
11935;SDS011;6027;48.576;9.180;2024-03-02T07:28:22;18.43;;;16.70;;
11935;SDS011;6027;48.576;9.180;2024-03-02T07:30:57;20.10;;;18.20;;
11935;SDS011;6027;48.576;9.180;2024-03-02T07:33:31;20.73;;;18.83;;
11935;SDS011;6027;48.576;9.180;2024-03-02T07:35:57;20.77;;;18.77;;
11935;SDS011;6027;48.576;9.180;2024-03-02T07:38:25;20.90;;;18.83;;
11935;SDS011;6027;48.576;9.180;2024-03-02T07:40:52;21.20;;;19.00;;
11935;SDS011;6027;48.576;9.180;2024-03-02T07:43:21;21.23;;;19.13;;
11935;SDS011;6027;48.576;9.180;2024-03-02T07:45:47;20.20;;;18.17;;
11935;SDS011;6027;48.576;9.180;2024-03-02T07:48:13;19.03;;;17.03;;
11935;SDS011;6027;48.576;9.180;2024-03-02T07:50:39;17.67;;;15.77;;
11935;SDS011;6027;48.576;9.180;2024-03-02T07:53:05;16.73;;;15.03;;
11935;SDS011;6027;48.576;9.180;2024-03-02T07:55:30;15.87;;;14.27;;
11935;SDS011;6027;48.576;9.180;2024-03-02T07:57:56;16.53;;;14.83;;
11935;SDS011;6027;48.576;9.180;2024-03-02T08:00:22;15.43;;;13.93;;
11935;SDS011;6027;48.576;9.180;2024-03-02T08:02:49;15.23;;;13.67;;
11935;SDS011;6027;48.576;9.180;2024-03-02T08:05:16;15.18;;;13.60;;
11935;SDS011;6027;48.576;9.180;2024-03-02T08:07:43;13.93;;;12.57;;
11935;SDS011;6027;48.576;9.180;2024-03-02T08:10:09;13.05;;;11.90;;
11935;SDS011;6027;48.576;9.180;2024-03-02T08:12:35;12.88;;;11.68;;
11935;SDS011;6027;48.576;9.180;2024-03-02T08:15:00;13.15;;;11.95;;
11935;SDS011;6027;48.576;9.180;2024-03-02T08:17:25;19.40;;;17.40;;
11935;SDS011;6027;48.576;9.180;2024-03-02T08:19:51;16.90;;;15.30;;
11935;SDS011;6027;48.576;9.180;2024-03-02T08:22:16;14.57;;;13.13;;
11935;SDS011;6027;48.576;9.180;2024-03-02T08:24:42;13.48;;;12.27;;
11935;SDS011;6027;48.576;9.180;2024-03-02T08:27:07;12.68;;;11.48;;
11935;SDS011;6027;48.576;9.180;2024-03-02T08:29:34;13.05;;;11.75;;
11935;SDS011;6027;48.576;9.180;2024-03-02T08:32:00;11.65;;;10.57;;
11935;SDS011;6027;48.576;9.180;2024-03-02T08:34:25;11.30;;;10.30;;
11935;SDS011;6027;48.576;9.180;2024-03-02T08:36:51;10.88;;;9.88;;
11935;SDS011;6027;48.576;9.180;2024-03-02T08:39:16;9.43;;;8.63;;
11935;SDS011;6027;48.576;9.180;2024-03-02T08:41:44;9.23;;;8.43;;
11935;SDS011;6027;48.576;9.180;2024-03-02T08:44:09;8.82;;;8.00;;
11935;SDS011;6027;48.576;9.180;2024-03-02T08:46:35;8.68;;;7.88;;
11935;SDS011;6027;48.576;9.180;2024-03-02T08:49:01;8.43;;;7.60;;
11935;SDS011;6027;48.576;9.180;2024-03-02T08:51:27;9.15;;;8.25;;
11935;SDS011;6027;48.576;9.180;2024-03-02T08:53:52;9.30;;;8.50;;
11935;SDS011;6027;48.576;9.180;2024-03-02T08:56:18;11.55;;;10.45;;
11935;SDS011;6027;48.576;9.180;2024-03-02T08:58:45;9.57;;;8.63;;
11935;SDS011;6027;48.576;9.180;2024-03-02T09:01:11;9.00;;;8.20;;
11935;SDS011;6027;48.576;9.180;2024-03-02T09:03:36;9.45;;;8.63;;
11935;SDS011;6027;48.576;9.180;2024-03-02T09:06:02;9.57;;;8.68;;
11935;SDS011;6027;48.576;9.180;2024-03-02T09:08:28;8.02;;;7.32;;
11935;SDS011;6027;48.576;9.180;2024-03-02T09:10:54;7.47;;;6.88;;
11935;SDS011;6027;48.576;9.180;2024-03-02T09:13:20;9.50;;;7.18;;
11935;SDS011;6027;48.576;9.180;2024-03-02T09:15:45;8.55;;;7.75;;
11935;SDS011;6027;48.576;9.180;2024-03-02T09:18:11;7.55;;;6.90;;
11935;SDS011;6027;48.576;9.180;2024-03-02T09:20:36;7.75;;;7.00;;
11935;SDS011;6027;48.576;9.180;2024-03-02T09:23:02;8.50;;;7.70;;
11935;SDS011;6027;48.576;9.180;2024-03-02T09:25:27;8.20;;;7.40;;
11935;SDS011;6027;48.576;9.180;2024-03-02T09:27:52;7.95;;;7.20;;
11935;SDS011;6027;48.576;9.180;2024-03-02T09:30:18;7.63;;;6.95;;
11935;SDS011;6027;48.576;9.180;2024-03-02T09:32:43;7.30;;;6.50;;
11935;SDS011;6027;48.576;9.180;2024-03-02T09:35:09;6.70;;;6.07;;
11935;SDS011;6027;48.576;9.180;2024-03-02T09:37:34;6.55;;;5.93;;
11935;SDS011;6027;48.576;9.180;2024-03-02T09:40:00;5.55;;;5.05;;
11935;SDS011;6027;48.576;9.180;2024-03-02T09:42:26;5.47;;;5.00;;
11935;SDS011;6027;48.576;9.180;2024-03-02T09:44:52;5.47;;;4.72;;
11935;SDS011;6027;48.576;9.180;2024-03-02T09:47:18;4.95;;;4.50;;
11935;SDS011;6027;48.576;9.180;2024-03-02T09:49:43;4.78;;;4.32;;
11935;SDS011;6027;48.576;9.180;2024-03-02T09:52:10;4.80;;;4.40;;
11935;SDS011;6027;48.576;9.180;2024-03-02T09:54:36;4.22;;;3.83;;
11935;SDS011;6027;48.576;9.180;2024-03-02T09:57:04;4.95;;;4.00;;
11935;SDS011;6027;48.576;9.180;2024-03-02T09:59:32;4.20;;;3.78;;
11935;SDS011;6027;48.576;9.180;2024-03-02T10:02:01;4.22;;;3.83;;
11935;SDS011;6027;48.576;9.180;2024-03-02T10:04:28;3.90;;;3.60;;
11935;SDS011;6027;48.576;9.180;2024-03-02T10:09:41;4.15;;;3.75;;
11935;SDS011;6027;48.576;9.180;2024-03-02T10:12:08;5.57;;;4.40;;
11935;SDS011;6027;48.576;9.180;2024-03-02T10:14:35;4.25;;;3.85;;
11935;SDS011;6027;48.576;9.180;2024-03-02T10:17:04;4.30;;;3.90;;
11935;SDS011;6027;48.576;9.180;2024-03-02T10:19:33;4.13;;;3.72;;
11935;SDS011;6027;48.576;9.180;2024-03-02T10:22:03;4.07;;;3.67;;
11935;SDS011;6027;48.576;9.180;2024-03-02T10:27:15;4.10;;;3.72;;
11935;SDS011;6027;48.576;9.180;2024-03-02T10:29:48;4.40;;;3.90;;
11935;SDS011;6027;48.576;9.180;2024-03-02T10:32:17;5.95;;;4.05;;
11935;SDS011;6027;48.576;9.180;2024-03-02T10:34:43;4.18;;;3.75;;
11935;SDS011;6027;48.576;9.180;2024-03-02T10:37:13;7.38;;;3.88;;
11935;SDS011;6027;48.576;9.180;2024-03-02T10:39:39;4.22;;;3.70;;
11935;SDS011;6027;48.576;9.180;2024-03-02T10:42:05;4.57;;;4.18;;
11935;SDS011;6027;48.576;9.180;2024-03-02T10:44:32;4.10;;;3.70;;
11935;SDS011;6027;48.576;9.180;2024-03-02T10:47:02;4.35;;;3.95;;
11935;SDS011;6027;48.576;9.180;2024-03-02T10:49:32;4.35;;;3.80;;
11935;SDS011;6027;48.576;9.180;2024-03-02T10:51:59;4.15;;;3.75;;
11935;SDS011;6027;48.576;9.180;2024-03-02T10:54:25;4.28;;;3.88;;
11935;SDS011;6027;48.576;9.180;2024-03-02T10:57:00;4.80;;;3.65;;
11935;SDS011;6027;48.576;9.180;2024-03-02T10:59:37;4.10;;;3.40;;
11935;SDS011;6027;48.576;9.180;2024-03-02T11:02:17;3.85;;;3.33;;
11935;SDS011;6027;48.576;9.180;2024-03-02T11:04:46;3.63;;;2.92;;
11935;SDS011;6027;48.576;9.180;2024-03-02T11:07:14;3.45;;;3.15;;
11935;SDS011;6027;48.576;9.180;2024-03-02T11:09:54;3.13;;;2.83;;
11935;SDS011;6027;48.576;9.180;2024-03-02T11:12:38;3.17;;;2.70;;
11935;SDS011;6027;48.576;9.180;2024-03-02T11:15:11;4.07;;;2.83;;
11935;SDS011;6027;48.576;9.180;2024-03-02T11:17:42;2.90;;;2.65;;
11935;SDS011;6027;48.576;9.180;2024-03-02T11:20:09;4.07;;;2.28;;
11935;SDS011;6027;48.576;9.180;2024-03-02T11:22:35;6.63;;;3.13;;
11935;SDS011;6027;48.576;9.180;2024-03-02T11:25:01;3.22;;;2.78;;
11935;SDS011;6027;48.576;9.180;2024-03-02T11:32:55;2.63;;;2.40;;
11935;SDS011;6027;48.576;9.180;2024-03-02T11:35:21;2.35;;;1.92;;
11935;SDS011;6027;48.576;9.180;2024-03-02T11:37:49;2.30;;;2.10;;
11935;SDS011;6027;48.576;9.180;2024-03-02T11:40:15;2.20;;;2.00;;
11935;SDS011;6027;48.576;9.180;2024-03-02T11:42:47;3.55;;;2.03;;
11935;SDS011;6027;48.576;9.180;2024-03-02T11:45:16;2.15;;;1.95;;
11935;SDS011;6027;48.576;9.180;2024-03-02T11:47:46;1.98;;;1.73;;
11935;SDS011;6027;48.576;9.180;2024-03-02T11:50:15;2.25;;;1.95;;
11935;SDS011;6027;48.576;9.180;2024-03-02T11:52:41;1.98;;;1.77;;
11935;SDS011;6027;48.576;9.180;2024-03-02T11:55:07;1.90;;;1.70;;
11935;SDS011;6027;48.576;9.180;2024-03-02T11:57:34;1.70;;;1.60;;
11935;SDS011;6027;48.576;9.180;2024-03-02T12:00:00;3.30;;;2.08;;
11935;SDS011;6027;48.576;9.180;2024-03-02T12:02:28;2.35;;;1.90;;
11935;SDS011;6027;48.576;9.180;2024-03-02T12:04:54;2.30;;;1.88;;
11935;SDS011;6027;48.576;9.180;2024-03-02T12:07:23;2.30;;;2.10;;
11935;SDS011;6027;48.576;9.180;2024-03-02T12:09:49;2.83;;;2.28;;
11935;SDS011;6027;48.576;9.180;2024-03-02T12:12:25;2.60;;;2.22;;
11935;SDS011;6027;48.576;9.180;2024-03-02T12:14:52;2.72;;;2.17;;
11935;SDS011;6027;48.576;9.180;2024-03-02T12:17:18;2.55;;;2.05;;
11935;SDS011;6027;48.576;9.180;2024-03-02T12:19:44;2.63;;;2.00;;
11935;SDS011;6027;48.576;9.180;2024-03-02T12:22:11;1.70;;;1.40;;
11935;SDS011;6027;48.576;9.180;2024-03-02T12:24:36;1.65;;;1.27;;
11935;SDS011;6027;48.576;9.180;2024-03-02T12:27:02;2.58;;;1.77;;
11935;SDS011;6027;48.576;9.180;2024-03-02T12:29:29;2.70;;;1.80;;
11935;SDS011;6027;48.576;9.180;2024-03-02T12:31:55;1.73;;;1.60;;
11935;SDS011;6027;48.576;9.180;2024-03-02T12:34:21;1.80;;;1.60;;
11935;SDS011;6027;48.576;9.180;2024-03-02T12:36:47;1.60;;;1.20;;
11935;SDS011;6027;48.576;9.180;2024-03-02T12:39:15;1.30;;;1.20;;
11935;SDS011;6027;48.576;9.180;2024-03-02T12:41:42;1.15;;;1.05;;
11935;SDS011;6027;48.576;9.180;2024-03-02T12:44:07;1.38;;;1.27;;
11935;SDS011;6027;48.576;9.180;2024-03-02T12:46:33;1.23;;;1.13;;
11935;SDS011;6027;48.576;9.180;2024-03-02T12:49:04;1.70;;;1.48;;
11935;SDS011;6027;48.576;9.180;2024-03-02T12:51:32;1.40;;;1.27;;
11935;SDS011;6027;48.576;9.180;2024-03-02T12:53:58;1.95;;;1.40;;
11935;SDS011;6027;48.576;9.180;2024-03-02T12:56:24;2.17;;;1.25;;
11935;SDS011;6027;48.576;9.180;2024-03-02T12:58:53;1.42;;;1.33;;
11935;SDS011;6027;48.576;9.180;2024-03-02T13:01:19;1.67;;;1.40;;
11935;SDS011;6027;48.576;9.180;2024-03-02T13:03:45;1.70;;;1.52;;
11935;SDS011;6027;48.576;9.180;2024-03-02T13:06:12;1.30;;;0.90;;
11935;SDS011;6027;48.576;9.180;2024-03-02T13:08:38;1.27;;;1.17;;
11935;SDS011;6027;48.576;9.180;2024-03-02T13:11:04;2.17;;;1.17;;
11935;SDS011;6027;48.576;9.180;2024-03-02T13:13:32;1.67;;;1.55;;
11935;SDS011;6027;48.576;9.180;2024-03-02T13:15:58;1.30;;;1.20;;
11935;SDS011;6027;48.576;9.180;2024-03-02T13:18:23;1.48;;;1.15;;
11935;SDS011;6027;48.576;9.180;2024-03-02T13:20:49;1.38;;;0.95;;
11935;SDS011;6027;48.576;9.180;2024-03-02T13:23:14;1.10;;;0.90;;
11935;SDS011;6027;48.576;9.180;2024-03-02T13:25:39;1.25;;;0.98;;
11935;SDS011;6027;48.576;9.180;2024-03-02T13:28:05;1.00;;;0.90;;
11935;SDS011;6027;48.576;9.180;2024-03-02T13:30:31;1.10;;;1.00;;
11935;SDS011;6027;48.576;9.180;2024-03-02T13:32:57;1.42;;;0.82;;
11935;SDS011;6027;48.576;9.180;2024-03-02T13:35:23;2.55;;;0.90;;
11935;SDS011;6027;48.576;9.180;2024-03-02T13:37:48;1.88;;;1.20;;
11935;SDS011;6027;48.576;9.180;2024-03-02T13:40:15;2.55;;;0.90;;
11935;SDS011;6027;48.576;9.180;2024-03-02T13:42:45;1.05;;;0.90;;
11935;SDS011;6027;48.576;9.180;2024-03-02T13:45:13;2.13;;;1.08;;
11935;SDS011;6027;48.576;9.180;2024-03-02T13:47:39;0.88;;;0.80;;
11935;SDS011;6027;48.576;9.180;2024-03-02T13:50:04;1.08;;;0.90;;
11935;SDS011;6027;48.576;9.180;2024-03-02T13:52:31;1.08;;;0.98;;
11935;SDS011;6027;48.576;9.180;2024-03-02T13:54:56;0.98;;;0.80;;
11935;SDS011;6027;48.576;9.180;2024-03-02T13:57:22;1.38;;;0.90;;
11935;SDS011;6027;48.576;9.180;2024-03-02T13:59:47;1.08;;;0.70;;
11935;SDS011;6027;48.576;9.180;2024-03-02T14:02:13;1.45;;;1.00;;
11935;SDS011;6027;48.576;9.180;2024-03-02T14:04:39;1.63;;;0.90;;
11935;SDS011;6027;48.576;9.180;2024-03-02T14:07:05;0.90;;;0.80;;
11935;SDS011;6027;48.576;9.180;2024-03-02T14:09:36;1.10;;;0.88;;
11935;SDS011;6027;48.576;9.180;2024-03-02T14:12:01;1.88;;;1.10;;
11935;SDS011;6027;48.576;9.180;2024-03-02T14:14:28;1.02;;;0.85;;
11935;SDS011;6027;48.576;9.180;2024-03-02T14:16:56;1.02;;;0.70;;
11935;SDS011;6027;48.576;9.180;2024-03-02T14:19:25;0.70;;;0.60;;
11935;SDS011;6027;48.576;9.180;2024-03-02T14:21:51;3.20;;;0.68;;
11935;SDS011;6027;48.576;9.180;2024-03-02T14:24:16;0.75;;;0.75;;
11935;SDS011;6027;48.576;9.180;2024-03-02T14:26:42;3.80;;;1.30;;
11935;SDS011;6027;48.576;9.180;2024-03-02T14:29:07;0.98;;;0.88;;
11935;SDS011;6027;48.576;9.180;2024-03-02T14:31:33;0.80;;;0.73;;
11935;SDS011;6027;48.576;9.180;2024-03-02T14:33:58;0.57;;;0.57;;
11935;SDS011;6027;48.576;9.180;2024-03-02T14:36:25;0.80;;;0.75;;
11935;SDS011;6027;48.576;9.180;2024-03-02T14:38:52;1.10;;;0.70;;
11935;SDS011;6027;48.576;9.180;2024-03-02T14:41:18;0.70;;;0.60;;
11935;SDS011;6027;48.576;9.180;2024-03-02T14:43:43;0.70;;;0.70;;
11935;SDS011;6027;48.576;9.180;2024-03-02T14:46:09;1.45;;;0.60;;
11935;SDS011;6027;48.576;9.180;2024-03-02T14:48:35;1.00;;;0.80;;
11935;SDS011;6027;48.576;9.180;2024-03-02T14:51:01;1.15;;;0.73;;
11935;SDS011;6027;48.576;9.180;2024-03-02T14:53:27;0.68;;;0.68;;
11935;SDS011;6027;48.576;9.180;2024-03-02T14:55:53;1.70;;;0.80;;
11935;SDS011;6027;48.576;9.180;2024-03-02T14:58:19;0.65;;;0.65;;
11935;SDS011;6027;48.576;9.180;2024-03-02T15:00:44;0.88;;;0.80;;